createdAt,value
2022-09-30T00:01:41.513Z,89.90
2022-09-30T00:04:13.893Z,89.80
2022-09-30T00:06:40.576Z,89.90
2022-09-30T00:09:08.067Z,89.90
2022-09-30T00:11:35.825Z,89.90
2022-09-30T00:14:03.022Z,89.80
2022-09-30T00:16:32.846Z,89.80
2022-09-30T00:19:00.502Z,89.60
2022-09-30T00:21:30.693Z,89.50
2022-09-30T00:23:57.368Z,89.40
2022-09-30T00:26:24.501Z,89.60
2022-09-30T00:28:54.534Z,89.50
2022-09-30T00:31:22.934Z,89.50
2022-09-30T00:34:08.457Z,89.40
2022-09-30T00:36:55.854Z,89.60
2022-09-30T00:39:27.249Z,89.60
2022-09-30T00:41:58.129Z,89.60
2022-09-30T00:44:45.650Z,89.60
2022-09-30T00:47:28.562Z,89.60
2022-09-30T00:50:02.796Z,89.70
2022-09-30T00:52:30.446Z,89.60
2022-09-30T00:55:01.090Z,89.50
2022-09-30T00:57:28.929Z,89.60
2022-09-30T00:59:55.761Z,89.60
2022-09-30T01:02:23.483Z,89.50
2022-09-30T01:04:50.281Z,89.70
2022-09-30T01:07:17.285Z,89.60
2022-09-30T01:09:45.126Z,89.80
2022-09-30T01:12:17.466Z,89.90
2022-09-30T01:14:47.065Z,89.90
2022-09-30T01:17:28.695Z,89.90
2022-09-30T01:20:13.983Z,89.90
2022-09-30T01:23:25.194Z,90.00
2022-09-30T01:25:54.718Z,90.00
2022-09-30T01:28:32.159Z,89.90
2022-09-30T01:31:07.602Z,90.00
2022-09-30T01:33:45.491Z,90.00
2022-09-30T01:36:43.312Z,90.00
2022-09-30T01:39:36.589Z,90.00
2022-09-30T01:42:50.336Z,89.90
2022-09-30T01:45:28.628Z,90.00
2022-09-30T01:48:22.810Z,90.00
2022-09-30T01:51:30.363Z,90.10
2022-09-30T01:54:15.805Z,90.20
2022-09-30T01:56:46.162Z,90.20
2022-09-30T01:59:31.361Z,90.30
2022-09-30T02:02:18.086Z,90.30
2022-09-30T02:04:52.169Z,90.40
2022-09-30T02:07:40.349Z,90.50
2022-09-30T02:10:14.851Z,90.50
2022-09-30T02:12:48.584Z,90.60
2022-09-30T02:15:22.526Z,90.60
2022-09-30T02:18:13.465Z,90.90
2022-09-30T02:20:43.134Z,90.60
2022-09-30T02:23:25.911Z,90.60
2022-09-30T02:26:07.444Z,90.70
2022-09-30T02:28:39.511Z,90.80
2022-09-30T02:31:11.103Z,90.80
2022-09-30T02:33:49.079Z,90.80
2022-09-30T02:36:45.419Z,90.90
2022-09-30T02:39:42.170Z,90.90
2022-09-30T02:42:20.448Z,90.90
2022-09-30T02:44:50.938Z,90.90
2022-09-30T02:47:41.812Z,91.00
2022-09-30T02:50:24.395Z,91.00
2022-09-30T02:53:03.025Z,91.00
2022-09-30T02:55:56.954Z,91.00
2022-09-30T02:58:27.525Z,91.10
2022-09-30T03:00:54.778Z,91.10
2022-09-30T03:03:35.069Z,91.10
2022-09-30T03:06:02.101Z,91.20
2022-09-30T03:08:28.857Z,91.20
2022-09-30T03:10:55.917Z,91.30
2022-09-30T03:13:41.122Z,91.30
2022-09-30T03:16:31.098Z,91.30
2022-09-30T03:19:27.155Z,91.40
2022-09-30T03:22:05.562Z,91.50
2022-09-30T03:24:55.779Z,91.50
2022-09-30T03:27:42.966Z,91.50
2022-09-30T03:30:24.328Z,91.50
2022-09-30T03:33:06.110Z,91.50
2022-09-30T03:35:41.508Z,91.50
2022-09-30T03:38:20.030Z,91.50
2022-09-30T03:41:08.356Z,91.50
2022-09-30T03:43:38.097Z,91.60
2022-09-30T03:46:42.129Z,91.60
2022-09-30T03:49:13.347Z,91.60
2022-09-30T03:51:41.169Z,91.60
2022-09-30T03:54:13.183Z,91.60
2022-09-30T03:56:43.848Z,91.60
2022-09-30T03:59:12.399Z,91.70
2022-09-30T04:01:39.822Z,91.70
2022-09-30T04:04:06.649Z,91.70
2022-09-30T04:06:33.487Z,91.70
2022-09-30T04:09:00.388Z,91.80
2022-09-30T04:11:27.242Z,91.80
2022-09-30T04:13:53.977Z,91.70
2022-09-30T04:16:20.677Z,91.80
2022-09-30T04:18:47.429Z,91.80
2022-09-30T04:21:14.942Z,91.80
2022-09-30T04:23:42.585Z,91.80
2022-09-30T04:26:12.783Z,91.80
2022-09-30T04:28:39.621Z,91.80
2022-09-30T04:31:07.296Z,91.80
2022-09-30T04:33:34.345Z,91.80
2022-09-30T04:36:01.786Z,91.80
2022-09-30T04:38:29.415Z,91.80
2022-09-30T04:40:56.740Z,91.80
2022-09-30T04:43:24.910Z,91.80
2022-09-30T04:45:53.011Z,91.80
2022-09-30T04:48:22.163Z,91.90
2022-09-30T04:50:49.037Z,91.80
2022-09-30T04:53:16.518Z,91.80
2022-09-30T04:55:44.669Z,91.80
2022-09-30T04:58:11.922Z,91.80
2022-09-30T05:00:38.884Z,91.90
2022-09-30T05:03:05.958Z,91.90
2022-09-30T05:05:33.186Z,91.90
2022-09-30T05:08:01.701Z,91.90
2022-09-30T05:10:28.585Z,91.90
2022-09-30T05:12:55.718Z,91.90
2022-09-30T05:15:22.453Z,91.80
2022-09-30T05:17:49.518Z,91.90
2022-09-30T05:20:20.804Z,91.90
2022-09-30T05:22:47.874Z,92.20
2022-09-30T05:25:14.828Z,91.90
2022-09-30T05:27:41.504Z,91.90
2022-09-30T05:30:09.194Z,91.90
2022-09-30T05:32:35.943Z,91.90
2022-09-30T05:35:03.593Z,92.00
2022-09-30T05:37:30.645Z,92.20
2022-09-30T05:39:57.417Z,92.30
2022-09-30T05:42:24.108Z,92.40
2022-09-30T05:44:50.767Z,92.50
2022-09-30T05:47:17.624Z,92.60
2022-09-30T05:49:45.422Z,92.60
2022-09-30T05:52:14.247Z,92.70
2022-09-30T05:54:41.065Z,92.70
2022-09-30T05:57:08.286Z,92.70
2022-09-30T05:59:35.211Z,92.80
2022-09-30T06:02:01.993Z,92.80
2022-09-30T06:04:28.784Z,92.90
2022-09-30T06:06:55.553Z,92.90
2022-09-30T06:09:22.587Z,92.90
2022-09-30T06:11:49.439Z,93.00
2022-09-30T06:14:18.407Z,93.00
2022-09-30T06:16:45.231Z,93.00
2022-09-30T06:19:11.929Z,93.00
2022-09-30T06:21:39.939Z,93.10
2022-09-30T06:24:13.068Z,93.10
2022-09-30T06:26:39.774Z,93.10
2022-09-30T06:29:06.419Z,93.10
2022-09-30T06:31:33.149Z,93.10
2022-09-30T06:34:00.371Z,93.20
2022-09-30T06:36:29.232Z,93.20
2022-09-30T06:38:55.921Z,93.20
2022-09-30T06:41:27.832Z,93.20
2022-09-30T06:43:57.700Z,93.30
2022-09-30T06:46:30.680Z,93.30
2022-09-30T06:49:10.250Z,93.30
2022-09-30T06:51:39.282Z,93.30
2022-09-30T06:54:06.045Z,93.40
2022-09-30T06:56:32.867Z,93.40
2022-09-30T06:58:59.540Z,93.40
2022-09-30T07:01:27.691Z,93.40
2022-09-30T07:03:58.036Z,93.40
2022-09-30T07:06:26.346Z,93.40
2022-09-30T07:08:54.172Z,93.40
2022-09-30T07:11:21.790Z,93.40
2022-09-30T07:13:49.176Z,93.40
2022-09-30T07:16:18.036Z,93.50
2022-09-30T07:18:45.707Z,93.50
2022-09-30T07:21:15.932Z,93.50
2022-09-30T07:23:47.750Z,93.50
2022-09-30T07:26:16.306Z,93.50
2022-09-30T07:28:43.693Z,93.40
2022-09-30T07:31:32.050Z,93.40
2022-09-30T07:33:59.689Z,93.40
2022-09-30T07:36:32.581Z,93.40
2022-09-30T07:39:00.304Z,93.40
2022-09-30T07:41:29.008Z,93.30
2022-09-30T07:43:58.892Z,93.30
2022-09-30T07:46:31.284Z,93.30
2022-09-30T07:49:05.677Z,93.20
2022-09-30T07:51:38.497Z,93.10
2022-09-30T07:54:12.696Z,93.10
2022-09-30T07:59:29.105Z,93.00
2022-09-30T08:01:56.011Z,93.00
2022-09-30T08:04:23.981Z,93.00
2022-09-30T08:06:57.014Z,92.90
2022-09-30T08:09:25.812Z,92.90
2022-09-30T08:11:53.047Z,92.80
2022-09-30T08:14:25.654Z,92.80
2022-09-30T08:16:52.809Z,92.80
2022-09-30T08:19:21.622Z,92.70
2022-09-30T08:21:49.381Z,92.70
2022-09-30T08:24:16.641Z,92.70
2022-09-30T08:26:43.541Z,92.60
2022-09-30T08:29:17.018Z,92.60
2022-09-30T08:31:47.110Z,92.60
2022-09-30T08:34:13.946Z,92.60
2022-09-30T08:36:40.680Z,92.50
2022-09-30T08:39:07.447Z,92.50
2022-09-30T08:41:59.805Z,92.50
2022-09-30T08:44:43.586Z,92.40
2022-09-30T08:47:28.076Z,92.40
2022-09-30T08:50:23.990Z,92.40
2022-09-30T08:52:55.081Z,92.30
2022-09-30T08:55:31.604Z,92.30
2022-09-30T08:57:58.472Z,92.30
2022-09-30T09:00:25.899Z,92.20
2022-09-30T09:02:57.226Z,92.20
2022-09-30T09:05:59.105Z,92.20
2022-09-30T09:09:03.688Z,92.10
2022-09-30T09:11:57.772Z,92.10
2022-09-30T09:14:27.511Z,92.00
2022-09-30T09:17:06.613Z,92.00
2022-09-30T09:19:54.726Z,91.90
2022-09-30T09:22:24.823Z,91.90
2022-09-30T09:24:53.532Z,91.90
2022-09-30T09:27:48.034Z,91.90
2022-09-30T09:30:19.215Z,91.90
2022-09-30T09:32:55.312Z,91.90
2022-09-30T09:35:31.712Z,91.80
2022-09-30T09:38:39.865Z,91.90
2022-09-30T09:41:11.356Z,91.80
2022-09-30T09:43:43.853Z,91.80
2022-09-30T09:46:17.232Z,91.80
2022-09-30T09:48:44.794Z,91.70
2022-09-30T09:51:19.558Z,91.70
2022-09-30T09:53:53.813Z,91.60
2022-09-30T09:56:23.000Z,91.60
2022-09-30T09:59:06.212Z,91.60
2022-09-30T10:01:34.683Z,91.60
2022-09-30T10:04:11.805Z,91.60
2022-09-30T10:06:54.665Z,91.60
2022-09-30T10:09:35.692Z,91.50
2022-09-30T10:12:08.398Z,91.50
2022-09-30T10:14:48.636Z,91.50
2022-09-30T10:17:33.199Z,91.50
2022-09-30T10:20:01.624Z,91.50
2022-09-30T10:22:31.074Z,91.50
2022-09-30T10:25:17.480Z,91.40
2022-09-30T10:27:59.471Z,91.50
2022-09-30T10:30:53.287Z,91.50
2022-09-30T10:33:28.666Z,91.40
2022-09-30T10:36:08.432Z,91.40
2022-09-30T10:38:37.187Z,91.40
2022-09-30T10:41:05.958Z,91.40
2022-09-30T10:43:42.186Z,91.40
2022-09-30T10:46:27.231Z,91.40
2022-09-30T10:48:56.774Z,91.30
2022-09-30T10:51:27.899Z,91.40
2022-09-30T10:53:56.148Z,91.40
2022-09-30T10:56:55.169Z,91.30
2022-09-30T10:59:37.543Z,91.30
2022-09-30T11:02:28.510Z,91.30
2022-09-30T11:05:24.066Z,91.30
2022-09-30T11:07:50.701Z,91.30
2022-09-30T11:10:51.316Z,91.30
2022-09-30T11:13:27.486Z,91.30
2022-09-30T11:16:03.303Z,91.20
2022-09-30T11:18:41.582Z,91.30
2022-09-30T11:21:20.156Z,91.30
2022-09-30T11:23:56.220Z,91.40
2022-09-30T11:26:52.138Z,91.40
2022-09-30T11:29:38.954Z,91.40
2022-09-30T11:32:05.678Z,91.50
2022-09-30T11:34:37.962Z,91.50
2022-09-30T11:37:30.455Z,91.50
2022-09-30T11:40:25.167Z,91.60
2022-09-30T11:43:12.541Z,91.60
2022-09-30T11:45:48.230Z,91.70
2022-09-30T11:48:35.920Z,91.70
2022-09-30T11:51:24.046Z,91.70
2022-09-30T11:54:04.458Z,91.70
2022-09-30T11:56:44.699Z,91.70
2022-09-30T11:59:36.536Z,91.70
2022-09-30T12:02:06.458Z,91.80
2022-09-30T12:04:39.418Z,91.80
2022-09-30T12:07:18.860Z,91.80
2022-09-30T12:10:00.626Z,91.90
2022-09-30T12:12:27.404Z,91.90
2022-09-30T12:15:05.749Z,91.90
2022-09-30T12:17:39.201Z,91.90
2022-09-30T12:20:16.816Z,91.90
2022-09-30T12:22:46.638Z,92.30
2022-09-30T12:25:19.065Z,92.00
2022-09-30T12:27:53.250Z,92.30
2022-09-30T12:30:23.910Z,92.60
2022-09-30T12:32:59.615Z,92.70
2022-09-30T12:35:40.874Z,92.90
2022-09-30T12:38:39.999Z,93.00
2022-09-30T12:41:22.845Z,93.10
2022-09-30T12:44:31.725Z,93.30
2022-09-30T12:47:27.875Z,93.40
2022-09-30T12:49:58.271Z,93.60
2022-09-30T12:52:26.302Z,93.80
2022-09-30T12:55:05.961Z,94.00
2022-09-30T12:57:37.025Z,94.00
2022-09-30T13:00:21.511Z,94.00
2022-09-30T13:03:16.350Z,94.10
2022-09-30T13:05:43.785Z,94.10
2022-09-30T13:08:25.847Z,94.10
2022-09-30T13:11:00.304Z,94.00
2022-09-30T13:13:32.362Z,94.00
2022-09-30T13:16:03.631Z,94.00
2022-09-30T13:18:50.365Z,94.10
2022-09-30T13:21:21.438Z,94.10
2022-09-30T13:23:53.167Z,94.10
2022-09-30T13:26:26.204Z,94.10
2022-09-30T13:28:59.959Z,94.10
2022-09-30T13:31:32.713Z,94.10
2022-09-30T13:34:02.268Z,94.10
2022-09-30T13:36:32.421Z,94.20
2022-09-30T13:39:14.741Z,94.20
2022-09-30T13:41:44.011Z,94.20
2022-09-30T13:44:21.667Z,94.20
2022-09-30T13:47:05.684Z,94.20
2022-09-30T13:49:45.690Z,94.20
2022-09-30T13:52:22.337Z,94.20
2022-09-30T13:54:50.658Z,94.30
2022-09-30T13:57:28.717Z,94.30
2022-09-30T14:00:16.514Z,94.30
2022-09-30T14:03:03.963Z,94.30
2022-09-30T14:05:40.215Z,94.30
2022-09-30T14:08:19.346Z,94.30
2022-09-30T14:11:16.095Z,94.30
2022-09-30T14:14:08.541Z,94.40
2022-09-30T14:16:56.519Z,94.40
2022-09-30T14:19:29.305Z,94.40
2022-09-30T14:21:59.276Z,94.50
2022-09-30T14:24:30.881Z,94.40
2022-09-30T14:27:19.449Z,94.50
2022-09-30T14:30:01.324Z,94.60
2022-09-30T14:32:49.360Z,94.60
2022-09-30T14:35:22.310Z,94.50
2022-09-30T14:37:56.558Z,94.30
2022-09-30T14:40:32.201Z,93.80
2022-09-30T14:43:08.414Z,93.30
2022-09-30T14:45:42.826Z,93.30
2022-09-30T14:48:21.029Z,93.00
2022-09-30T14:50:54.117Z,92.60
2022-09-30T14:53:35.145Z,92.30
2022-09-30T14:56:19.523Z,92.00
2022-09-30T14:58:48.228Z,92.10
2022-09-30T15:01:19.958Z,92.00
2022-09-30T15:04:01.023Z,91.70
2022-09-30T15:06:32.278Z,91.50
2022-09-30T15:09:15.279Z,91.40
2022-09-30T15:11:42.597Z,91.20
2022-09-30T15:14:18.315Z,91.30
2022-09-30T15:16:50.330Z,91.20
2022-09-30T15:19:29.830Z,91.20
2022-09-30T15:22:02.302Z,91.00
2022-09-30T15:24:31.320Z,90.90
2022-09-30T15:27:00.136Z,90.80
2022-09-30T15:29:26.998Z,90.60
2022-09-30T15:32:03.150Z,90.50
2022-09-30T15:34:30.513Z,90.50
2022-09-30T15:37:10.665Z,90.40
2022-09-30T15:40:04.993Z,90.40
2022-09-30T15:42:39.810Z,90.40
2022-09-30T15:45:37.227Z,90.30
2022-09-30T15:48:26.683Z,90.30
2022-09-30T15:50:53.909Z,90.20
2022-09-30T15:53:37.288Z,90.20
2022-09-30T15:56:34.369Z,90.50
2022-09-30T15:59:01.384Z,90.60
2022-09-30T16:01:46.274Z,90.50
2022-09-30T16:04:15.688Z,90.50
2022-09-30T16:06:49.577Z,90.60
2022-09-30T16:09:19.165Z,90.60
2022-09-30T16:12:08.881Z,90.60
2022-09-30T16:14:54.275Z,90.60
2022-09-30T16:17:27.028Z,90.60
2022-09-30T16:19:57.937Z,90.60
2022-09-30T16:22:42.918Z,90.70
2022-09-30T16:25:09.863Z,90.70
2022-09-30T16:27:37.766Z,90.70
2022-09-30T16:30:06.568Z,90.60
2022-09-30T16:32:38.439Z,90.50
2022-09-30T16:35:06.232Z,90.40
2022-09-30T16:37:33.040Z,90.40
2022-09-30T16:40:10.428Z,90.30
2022-09-30T16:42:37.225Z,90.30
2022-09-30T16:45:04.439Z,90.20
2022-09-30T16:47:31.118Z,90.20
2022-09-30T16:49:58.845Z,89.90
2022-09-30T16:52:26.102Z,89.90
2022-09-30T16:54:52.756Z,90.00
2022-09-30T16:57:19.473Z,90.00
2022-09-30T16:59:46.135Z,90.00
2022-09-30T17:02:14.777Z,90.10
2022-09-30T17:04:41.957Z,90.10
2022-09-30T17:10:59.278Z,90.00
2022-09-30T17:13:26.806Z,89.40
2022-09-30T17:15:55.161Z,89.30
2022-09-30T17:18:21.954Z,89.50
2022-09-30T17:20:52.893Z,89.30
2022-09-30T17:23:21.590Z,89.50
2022-09-30T17:25:48.534Z,89.70
2022-09-30T17:28:15.998Z,89.70
2022-09-30T17:30:45.081Z,90.00
2022-09-30T17:33:12.556Z,90.00
2022-09-30T17:35:40.516Z,90.00
2022-09-30T17:38:12.269Z,89.80
2022-09-30T17:40:57.964Z,89.80
2022-09-30T17:43:24.752Z,89.80
2022-09-30T17:45:52.141Z,90.20
2022-09-30T17:48:19.483Z,90.00
2022-09-30T17:50:48.389Z,90.00
2022-09-30T17:53:19.680Z,90.00
2022-09-30T17:55:48.285Z,90.10
2022-09-30T17:58:16.846Z,90.10
2022-09-30T18:00:43.919Z,90.20
2022-09-30T18:03:11.223Z,90.10
2022-09-30T18:05:38.316Z,90.10
2022-09-30T18:08:05.600Z,90.40
2022-09-30T18:10:32.417Z,90.60
2022-09-30T18:12:59.702Z,90.60
2022-09-30T18:15:27.111Z,90.60
2022-09-30T18:17:53.900Z,90.60
2022-09-30T18:20:23.377Z,90.60
2022-09-30T18:22:52.275Z,90.60
2022-09-30T18:25:22.874Z,90.60
2022-09-30T18:27:56.823Z,90.70
2022-09-30T18:30:24.384Z,90.70
2022-09-30T18:32:53.227Z,90.70
2022-09-30T18:35:22.614Z,91.10
2022-09-30T18:37:50.321Z,90.80
2022-09-30T18:40:19.365Z,90.80
2022-09-30T18:42:46.446Z,90.80
2022-09-30T18:45:13.430Z,90.80
2022-09-30T18:47:42.311Z,90.70
2022-09-30T18:50:10.763Z,90.70
2022-09-30T18:52:37.856Z,90.80
2022-09-30T18:55:05.218Z,90.70
2022-09-30T18:57:32.485Z,90.70
2022-09-30T18:59:59.238Z,90.80
2022-09-30T19:02:27.228Z,90.80
2022-09-30T19:04:59.797Z,90.90
2022-09-30T19:07:27.020Z,91.00
2022-09-30T19:09:53.972Z,91.20
2022-09-30T19:12:21.433Z,91.30
2022-09-30T19:14:48.407Z,91.40
2022-09-30T19:17:15.992Z,91.50
2022-09-30T19:19:43.181Z,91.60
2022-09-30T19:22:10.640Z,91.70
2022-09-30T19:24:40.291Z,91.80
2022-09-30T19:27:07.018Z,91.90
2022-09-30T19:29:33.967Z,91.90
2022-09-30T19:32:00.869Z,91.90
2022-09-30T19:34:32.265Z,92.00
2022-09-30T19:36:59.877Z,92.10
2022-09-30T19:39:37.706Z,92.20
2022-09-30T19:42:08.702Z,92.20
2022-09-30T19:44:36.260Z,92.20
2022-09-30T19:47:03.266Z,92.30
2022-09-30T19:49:31.085Z,92.30
2022-09-30T19:51:57.763Z,92.30
2022-09-30T19:54:35.978Z,92.40
2022-09-30T19:57:04.849Z,92.40
2022-09-30T19:59:31.827Z,92.50
2022-09-30T20:01:58.656Z,92.50
2022-09-30T20:04:25.377Z,92.50
2022-09-30T20:06:53.713Z,92.50
2022-09-30T20:09:20.448Z,92.50
2022-09-30T20:11:47.234Z,92.50
2022-09-30T20:14:32.501Z,92.50
2022-09-30T20:16:59.192Z,92.50
2022-09-30T20:19:25.915Z,92.50
2022-09-30T20:21:54.428Z,92.60
2022-09-30T20:24:21.319Z,92.60
2022-09-30T20:26:48.712Z,92.60
2022-09-30T20:29:16.098Z,92.60
2022-09-30T20:31:44.061Z,92.60
2022-09-30T20:34:16.138Z,92.60
2022-09-30T20:36:43.667Z,92.60
2022-09-30T20:39:11.245Z,92.60
2022-09-30T20:41:39.354Z,92.60
2022-09-30T20:44:08.963Z,92.60
2022-09-30T20:46:35.792Z,92.70
2022-09-30T20:49:02.745Z,92.80
2022-09-30T20:51:31.016Z,92.80
2022-09-30T20:53:59.165Z,93.10
2022-09-30T20:56:39.027Z,92.80
2022-09-30T20:59:15.478Z,92.80
2022-09-30T21:01:42.649Z,92.80
2022-09-30T21:04:09.433Z,92.70
2022-09-30T21:06:36.117Z,92.70
2022-09-30T21:09:03.750Z,92.70
2022-09-30T21:11:30.789Z,92.80
2022-09-30T21:13:58.137Z,92.80
2022-09-30T21:16:25.683Z,92.80
2022-09-30T21:18:53.263Z,92.80
2022-09-30T21:21:21.598Z,92.80
2022-09-30T21:23:48.927Z,92.70
2022-09-30T21:26:17.619Z,92.70
2022-09-30T21:28:49.370Z,92.70
2022-09-30T21:31:22.223Z,92.80
2022-09-30T21:33:55.086Z,92.80
2022-09-30T21:36:22.215Z,92.80
2022-09-30T21:38:50.063Z,92.80
2022-09-30T21:41:17.607Z,92.80
2022-09-30T21:43:44.357Z,92.80
2022-09-30T21:46:13.847Z,92.90
2022-09-30T21:48:41.245Z,92.80
2022-09-30T21:51:09.619Z,92.90
2022-09-30T21:53:38.802Z,92.90
2022-09-30T21:56:07.417Z,92.90
2022-09-30T21:58:34.168Z,92.90
2022-09-30T22:01:03.749Z,92.90
2022-09-30T22:03:35.944Z,92.90
2022-09-30T22:06:07.111Z,92.90
2022-09-30T22:08:40.669Z,92.90
2022-09-30T22:11:16.460Z,92.90
2022-09-30T22:13:45.060Z,93.00
2022-09-30T22:16:15.250Z,93.00
2022-09-30T22:18:42.779Z,93.00
2022-09-30T22:21:12.537Z,93.10
2022-09-30T22:23:39.686Z,93.10
2022-09-30T22:26:11.887Z,93.00
2022-09-30T22:28:39.672Z,93.00
2022-09-30T22:31:20.975Z,93.00
2022-09-30T22:34:07.865Z,93.00
2022-09-30T22:36:53.849Z,93.00
2022-09-30T22:39:21.620Z,93.00
2022-09-30T22:41:53.022Z,93.00
2022-09-30T22:44:20.745Z,93.00
2022-09-30T22:46:47.485Z,93.00
2022-09-30T22:49:14.161Z,92.90
2022-09-30T22:51:40.909Z,92.90
2022-09-30T22:54:07.918Z,92.90
2022-09-30T22:56:35.263Z,92.90
2022-09-30T22:59:02.145Z,92.90
2022-09-30T23:01:29.726Z,93.00
2022-09-30T23:03:56.553Z,92.90
2022-09-30T23:06:24.569Z,92.90
2022-09-30T23:08:52.473Z,92.90
2022-09-30T23:11:19.423Z,92.90
2022-09-30T23:13:46.800Z,93.00
2022-09-30T23:16:14.856Z,92.90
2022-09-30T23:18:41.669Z,93.00
2022-09-30T23:21:12.882Z,93.00
2022-09-30T23:23:40.120Z,93.00
2022-09-30T23:26:21.151Z,93.00
2022-09-30T23:28:47.864Z,93.00
2022-09-30T23:31:16.479Z,93.00
2022-09-30T23:33:49.110Z,93.00
2022-09-30T23:36:18.698Z,93.00
2022-09-30T23:38:46.518Z,93.00
2022-09-30T23:41:14.054Z,93.00
2022-09-30T23:43:45.769Z,93.00
2022-09-30T23:46:12.705Z,92.90
2022-09-30T23:48:39.915Z,93.00
2022-09-30T23:51:07.567Z,93.00
2022-09-30T23:53:35.339Z,93.00
2022-09-30T23:56:05.114Z,93.00
2022-09-30T23:58:35.718Z,92.90
